sensor_id;sensor_type;location;lat;lon;timestamp;P1;durP1;ratioP1;P2;durP2;ratioP2
2620;SDS011;1320;48.128;11.592;2022-09-09T00:02:15;6.77;;;3.57;;
2620;SDS011;1320;48.128;11.592;2022-09-09T00:05:13;5.33;;;2.87;;
2620;SDS011;1320;48.128;11.592;2022-09-09T00:07:48;5.80;;;3.23;;
2620;SDS011;1320;48.128;11.592;2022-09-09T00:10:28;5.30;;;3.17;;
2620;SDS011;1320;48.128;11.592;2022-09-09T00:13:16;12.20;;;4.80;;
2620;SDS011;1320;48.128;11.592;2022-09-09T00:21:54;5.30;;;3.80;;
2620;SDS011;1320;48.128;11.592;2022-09-09T00:24:38;6.10;;;3.80;;
2620;SDS011;1320;48.128;11.592;2022-09-09T00:27:36;6.33;;;4.23;;
2620;SDS011;1320;48.128;11.592;2022-09-09T00:30:18;6.77;;;4.33;;
2620;SDS011;1320;48.128;11.592;2022-09-09T00:33:00;6.97;;;4.10;;
2620;SDS011;1320;48.128;11.592;2022-09-09T00:35:32;6.10;;;3.57;;
2620;SDS011;1320;48.128;11.592;2022-09-09T00:38:03;9.87;;;4.87;;
2620;SDS011;1320;48.128;11.592;2022-09-09T00:40:39;5.40;;;4.40;;
2620;SDS011;1320;48.128;11.592;2022-09-09T00:54:54;5.50;;;4.30;;
2620;SDS011;1320;48.128;11.592;2022-09-09T00:57:27;7.03;;;4.33;;
2620;SDS011;1320;48.128;11.592;2022-09-09T01:00:14;6.83;;;3.93;;
2620;SDS011;1320;48.128;11.592;2022-09-09T01:05:45;6.70;;;4.67;;
2620;SDS011;1320;48.128;11.592;2022-09-09T01:10:59;5.97;;;4.13;;
2620;SDS011;1320;48.128;11.592;2022-09-09T01:13:34;5.70;;;4.10;;
2620;SDS011;1320;48.128;11.592;2022-09-09T01:16:02;6.97;;;4.20;;
2620;SDS011;1320;48.128;11.592;2022-09-09T01:18:35;6.40;;;5.33;;
2620;SDS011;1320;48.128;11.592;2022-09-09T01:21:17;6.10;;;5.10;;
2620;SDS011;1320;48.128;11.592;2022-09-09T01:26:26;5.90;;;4.90;;
2620;SDS011;1320;48.128;11.592;2022-09-09T01:28:57;6.83;;;5.90;;
2620;SDS011;1320;48.128;11.592;2022-09-09T01:31:26;6.63;;;4.27;;
2620;SDS011;1320;48.128;11.592;2022-09-09T01:34:13;6.73;;;4.70;;
2620;SDS011;1320;48.128;11.592;2022-09-09T01:36:44;6.70;;;5.30;;
2620;SDS011;1320;48.128;11.592;2022-09-09T01:39:17;6.03;;;3.97;;
2620;SDS011;1320;48.128;11.592;2022-09-09T01:41:43;6.70;;;4.20;;
2620;SDS011;1320;48.128;11.592;2022-09-09T01:44:08;6.33;;;4.27;;
2620;SDS011;1320;48.128;11.592;2022-09-09T01:46:36;8.13;;;5.37;;
2620;SDS011;1320;48.128;11.592;2022-09-09T01:49:02;7.00;;;4.90;;
2620;SDS011;1320;48.128;11.592;2022-09-09T01:51:30;6.30;;;5.33;;
2620;SDS011;1320;48.128;11.592;2022-09-09T01:53:56;6.67;;;4.30;;
2620;SDS011;1320;48.128;11.592;2022-09-09T02:02:11;6.17;;;4.13;;
2620;SDS011;1320;48.128;11.592;2022-09-09T02:04:54;6.57;;;5.40;;
2620;SDS011;1320;48.128;11.592;2022-09-09T02:07:38;6.80;;;5.43;;
2620;SDS011;1320;48.128;11.592;2022-09-09T02:10:14;7.50;;;6.80;;
2620;SDS011;1320;48.128;11.592;2022-09-09T02:12:54;7.20;;;6.50;;
2620;SDS011;1320;48.128;11.592;2022-09-09T02:15:32;6.43;;;5.03;;
2620;SDS011;1320;48.128;11.592;2022-09-09T02:17:59;6.97;;;5.80;;
2620;SDS011;1320;48.128;11.592;2022-09-09T02:20:29;6.77;;;6.07;;
2620;SDS011;1320;48.128;11.592;2022-09-09T02:22:57;6.80;;;4.13;;
2620;SDS011;1320;48.128;11.592;2022-09-09T02:25:26;7.50;;;6.80;;
2620;SDS011;1320;48.128;11.592;2022-09-09T02:27:54;6.10;;;4.23;;
2620;SDS011;1320;48.128;11.592;2022-09-09T02:30:23;7.20;;;5.47;;
2620;SDS011;1320;48.128;11.592;2022-09-09T02:32:49;6.90;;;5.77;;
2620;SDS011;1320;48.128;11.592;2022-09-09T02:35:18;8.37;;;7.53;;
2620;SDS011;1320;48.128;11.592;2022-09-09T02:37:47;7.00;;;5.27;;
2620;SDS011;1320;48.128;11.592;2022-09-09T02:40:15;7.67;;;6.97;;
2620;SDS011;1320;48.128;11.592;2022-09-09T02:42:41;6.97;;;5.27;;
2620;SDS011;1320;48.128;11.592;2022-09-09T02:45:09;7.30;;;6.30;;
2620;SDS011;1320;48.128;11.592;2022-09-09T02:47:43;6.83;;;6.03;;
2620;SDS011;1320;48.128;11.592;2022-09-09T02:50:26;7.90;;;6.10;;
2620;SDS011;1320;48.128;11.592;2022-09-09T02:58:22;8.80;;;6.80;;
2620;SDS011;1320;48.128;11.592;2022-09-09T03:00:49;7.27;;;6.20;;
2620;SDS011;1320;48.128;11.592;2022-09-09T03:03:16;7.43;;;6.60;;
2620;SDS011;1320;48.128;11.592;2022-09-09T03:05:43;7.13;;;4.30;;
2620;SDS011;1320;48.128;11.592;2022-09-09T03:08:10;6.80;;;5.47;;
2620;SDS011;1320;48.128;11.592;2022-09-09T03:10:36;7.07;;;4.53;;
2620;SDS011;1320;48.128;11.592;2022-09-09T03:13:02;7.53;;;6.67;;
2620;SDS011;1320;48.128;11.592;2022-09-09T03:15:30;7.73;;;7.03;;
2620;SDS011;1320;48.128;11.592;2022-09-09T03:17:57;6.80;;;5.57;;
2620;SDS011;1320;48.128;11.592;2022-09-09T03:20:24;7.40;;;6.60;;
2620;SDS011;1320;48.128;11.592;2022-09-09T03:22:51;7.10;;;5.40;;
2620;SDS011;1320;48.128;11.592;2022-09-09T03:25:18;6.77;;;6.07;;
2620;SDS011;1320;48.128;11.592;2022-09-09T03:27:44;7.30;;;6.20;;
2620;SDS011;1320;48.128;11.592;2022-09-09T03:30:09;6.00;;;5.03;;
2620;SDS011;1320;48.128;11.592;2022-09-09T03:32:35;7.70;;;6.90;;
2620;SDS011;1320;48.128;11.592;2022-09-09T03:35:01;8.73;;;6.10;;
2620;SDS011;1320;48.128;11.592;2022-09-09T03:37:28;6.80;;;5.63;;
2620;SDS011;1320;48.128;11.592;2022-09-09T03:39:53;7.13;;;5.80;;
2620;SDS011;1320;48.128;11.592;2022-09-09T03:42:19;7.20;;;5.60;;
2620;SDS011;1320;48.128;11.592;2022-09-09T03:44:46;7.00;;;5.90;;
2620;SDS011;1320;48.128;11.592;2022-09-09T03:47:14;9.33;;;5.60;;
2620;SDS011;1320;48.128;11.592;2022-09-09T03:49:43;8.10;;;7.33;;
2620;SDS011;1320;48.128;11.592;2022-09-09T03:52:09;7.07;;;5.83;;
2620;SDS011;1320;48.128;11.592;2022-09-09T03:54:35;7.27;;;5.33;;
2620;SDS011;1320;48.128;11.592;2022-09-09T03:57:01;6.60;;;5.27;;
2620;SDS011;1320;48.128;11.592;2022-09-09T03:59:27;6.97;;;5.30;;
2620;SDS011;1320;48.128;11.592;2022-09-09T04:01:53;7.90;;;6.60;;
2620;SDS011;1320;48.128;11.592;2022-09-09T04:04:19;7.07;;;5.40;;
2620;SDS011;1320;48.128;11.592;2022-09-09T04:06:45;7.07;;;5.10;;
2620;SDS011;1320;48.128;11.592;2022-09-09T04:09:13;7.53;;;6.13;;
2620;SDS011;1320;48.128;11.592;2022-09-09T04:11:39;7.10;;;5.47;;
2620;SDS011;1320;48.128;11.592;2022-09-09T04:14:04;7.93;;;6.63;;
2620;SDS011;1320;48.128;11.592;2022-09-09T04:16:31;7.30;;;5.80;;
2620;SDS011;1320;48.128;11.592;2022-09-09T04:18:58;6.23;;;4.40;;
2620;SDS011;1320;48.128;11.592;2022-09-09T04:21:24;6.63;;;5.43;;
2620;SDS011;1320;48.128;11.592;2022-09-09T04:23:50;7.67;;;5.97;;
2620;SDS011;1320;48.128;11.592;2022-09-09T04:26:16;6.53;;;5.73;;
2620;SDS011;1320;48.128;11.592;2022-09-09T04:28:42;7.60;;;5.07;;
2620;SDS011;1320;48.128;11.592;2022-09-09T04:31:09;6.10;;;4.27;;
2620;SDS011;1320;48.128;11.592;2022-09-09T04:33:39;6.90;;;4.47;;
2620;SDS011;1320;48.128;11.592;2022-09-09T04:36:05;8.00;;;5.90;;
2620;SDS011;1320;48.128;11.592;2022-09-09T04:38:31;7.13;;;5.87;;
2620;SDS011;1320;48.128;11.592;2022-09-09T04:40:57;7.37;;;5.77;;
2620;SDS011;1320;48.128;11.592;2022-09-09T04:43:23;8.03;;;6.23;;
2620;SDS011;1320;48.128;11.592;2022-09-09T04:45:50;7.20;;;5.73;;
2620;SDS011;1320;48.128;11.592;2022-09-09T04:48:16;6.40;;;5.23;;
2620;SDS011;1320;48.128;11.592;2022-09-09T04:50:43;6.63;;;5.90;;
2620;SDS011;1320;48.128;11.592;2022-09-09T04:53:08;7.00;;;5.00;;
2620;SDS011;1320;48.128;11.592;2022-09-09T04:55:34;7.40;;;5.43;;
2620;SDS011;1320;48.128;11.592;2022-09-09T04:58:04;8.90;;;5.33;;
2620;SDS011;1320;48.128;11.592;2022-09-09T05:00:30;8.17;;;6.10;;
2620;SDS011;1320;48.128;11.592;2022-09-09T05:02:57;8.60;;;5.90;;
2620;SDS011;1320;48.128;11.592;2022-09-09T05:05:22;6.50;;;5.03;;
2620;SDS011;1320;48.128;11.592;2022-09-09T05:07:48;7.53;;;6.53;;
2620;SDS011;1320;48.128;11.592;2022-09-09T05:10:14;7.20;;;4.63;;
2620;SDS011;1320;48.128;11.592;2022-09-09T05:12:41;8.40;;;6.17;;
2620;SDS011;1320;48.128;11.592;2022-09-09T05:15:06;6.73;;;5.20;;
2620;SDS011;1320;48.128;11.592;2022-09-09T05:17:32;6.17;;;4.80;;
2620;SDS011;1320;48.128;11.592;2022-09-09T05:19:58;7.07;;;5.50;;
2620;SDS011;1320;48.128;11.592;2022-09-09T05:22:24;6.43;;;5.73;;
2620;SDS011;1320;48.128;11.592;2022-09-09T05:24:50;8.77;;;5.37;;
2620;SDS011;1320;48.128;11.592;2022-09-09T05:27:16;8.00;;;7.30;;
2620;SDS011;1320;48.128;11.592;2022-09-09T05:29:44;8.60;;;5.80;;
2620;SDS011;1320;48.128;11.592;2022-09-09T05:32:10;7.60;;;5.57;;
2620;SDS011;1320;48.128;11.592;2022-09-09T05:34:36;7.50;;;5.40;;
2620;SDS011;1320;48.128;11.592;2022-09-09T05:37:02;6.87;;;5.23;;
2620;SDS011;1320;48.128;11.592;2022-09-09T05:39:29;7.60;;;6.03;;
2620;SDS011;1320;48.128;11.592;2022-09-09T05:41:55;7.07;;;5.40;;
2620;SDS011;1320;48.128;11.592;2022-09-09T05:44:21;6.27;;;5.57;;
2620;SDS011;1320;48.128;11.592;2022-09-09T05:46:48;7.93;;;5.00;;
2620;SDS011;1320;48.128;11.592;2022-09-09T05:49:14;6.60;;;5.10;;
2620;SDS011;1320;48.128;11.592;2022-09-09T05:51:40;7.00;;;4.47;;
2620;SDS011;1320;48.128;11.592;2022-09-09T05:54:08;7.63;;;5.03;;
2620;SDS011;1320;48.128;11.592;2022-09-09T05:56:34;8.40;;;4.30;;
2620;SDS011;1320;48.128;11.592;2022-09-09T05:59:00;7.73;;;6.50;;
2620;SDS011;1320;48.128;11.592;2022-09-09T06:01:26;8.60;;;6.10;;
2620;SDS011;1320;48.128;11.592;2022-09-09T06:03:54;7.30;;;5.43;;
2620;SDS011;1320;48.128;11.592;2022-09-09T06:06:24;7.30;;;6.10;;
2620;SDS011;1320;48.128;11.592;2022-09-09T06:08:52;6.70;;;5.60;;
2620;SDS011;1320;48.128;11.592;2022-09-09T06:11:20;6.53;;;5.40;;
2620;SDS011;1320;48.128;11.592;2022-09-09T06:13:56;6.53;;;4.20;;
2620;SDS011;1320;48.128;11.592;2022-09-09T06:16:23;6.87;;;4.87;;
2620;SDS011;1320;48.128;11.592;2022-09-09T06:18:50;8.20;;;5.63;;
2620;SDS011;1320;48.128;11.592;2022-09-09T06:21:23;6.53;;;4.03;;
2620;SDS011;1320;48.128;11.592;2022-09-09T06:23:55;8.80;;;4.73;;
2620;SDS011;1320;48.128;11.592;2022-09-09T06:26:25;6.43;;;5.17;;
2620;SDS011;1320;48.128;11.592;2022-09-09T06:28:53;7.40;;;5.77;;
2620;SDS011;1320;48.128;11.592;2022-09-09T06:31:20;6.80;;;6.10;;
2620;SDS011;1320;48.128;11.592;2022-09-09T06:33:48;7.20;;;5.60;;
2620;SDS011;1320;48.128;11.592;2022-09-09T06:36:19;6.40;;;5.20;;
2620;SDS011;1320;48.128;11.592;2022-09-09T06:38:47;6.67;;;5.70;;
2620;SDS011;1320;48.128;11.592;2022-09-09T06:41:14;6.20;;;4.13;;
2620;SDS011;1320;48.128;11.592;2022-09-09T06:43:41;7.07;;;4.33;;
2620;SDS011;1320;48.128;11.592;2022-09-09T06:48:38;7.80;;;6.77;;
2620;SDS011;1320;48.128;11.592;2022-09-09T06:53:36;8.07;;;5.17;;
2620;SDS011;1320;48.128;11.592;2022-09-09T06:58:59;9.03;;;5.63;;
2620;SDS011;1320;48.128;11.592;2022-09-09T07:01:29;6.83;;;5.03;;
2620;SDS011;1320;48.128;11.592;2022-09-09T07:03:57;7.10;;;4.43;;
2620;SDS011;1320;48.128;11.592;2022-09-09T07:08:57;6.60;;;4.70;;
2620;SDS011;1320;48.128;11.592;2022-09-09T07:11:25;8.83;;;6.90;;
2620;SDS011;1320;48.128;11.592;2022-09-09T07:13:52;5.90;;;3.57;;
2620;SDS011;1320;48.128;11.592;2022-09-09T07:16:19;7.03;;;4.20;;
2620;SDS011;1320;48.128;11.592;2022-09-09T07:18:49;6.60;;;5.40;;
2620;SDS011;1320;48.128;11.592;2022-09-09T07:21:16;6.80;;;5.30;;
2620;SDS011;1320;48.128;11.592;2022-09-09T07:23:42;8.23;;;5.63;;
2620;SDS011;1320;48.128;11.592;2022-09-09T07:26:12;7.63;;;6.13;;
2620;SDS011;1320;48.128;11.592;2022-09-09T07:28:40;7.40;;;6.13;;
2620;SDS011;1320;48.128;11.592;2022-09-09T07:31:07;7.47;;;5.30;;
2620;SDS011;1320;48.128;11.592;2022-09-09T07:33:38;7.20;;;6.00;;
2620;SDS011;1320;48.128;11.592;2022-09-09T07:38:42;7.97;;;4.97;;
2620;SDS011;1320;48.128;11.592;2022-09-09T07:41:17;7.63;;;5.23;;
2620;SDS011;1320;48.128;11.592;2022-09-09T07:43:45;6.80;;;4.57;;
2620;SDS011;1320;48.128;11.592;2022-09-09T07:46:13;7.63;;;5.70;;
2620;SDS011;1320;48.128;11.592;2022-09-09T07:48:47;8.70;;;5.07;;
2620;SDS011;1320;48.128;11.592;2022-09-09T07:51:18;7.70;;;6.10;;
2620;SDS011;1320;48.128;11.592;2022-09-09T07:53:51;6.60;;;5.20;;
2620;SDS011;1320;48.128;11.592;2022-09-09T07:56:19;7.00;;;4.73;;
2620;SDS011;1320;48.128;11.592;2022-09-09T07:58:47;6.13;;;4.37;;
2620;SDS011;1320;48.128;11.592;2022-09-09T08:01:18;7.17;;;5.40;;
2620;SDS011;1320;48.128;11.592;2022-09-09T08:03:56;6.80;;;4.90;;
2620;SDS011;1320;48.128;11.592;2022-09-09T08:06:31;9.93;;;4.60;;
2620;SDS011;1320;48.128;11.592;2022-09-09T08:08:59;9.83;;;4.67;;
2620;SDS011;1320;48.128;11.592;2022-09-09T08:11:26;6.30;;;4.17;;
2620;SDS011;1320;48.128;11.592;2022-09-09T08:13:54;6.80;;;4.57;;
2620;SDS011;1320;48.128;11.592;2022-09-09T08:16:21;6.07;;;4.03;;
2620;SDS011;1320;48.128;11.592;2022-09-09T08:18:49;7.50;;;4.70;;
2620;SDS011;1320;48.128;11.592;2022-09-09T08:21:18;7.03;;;4.60;;
2620;SDS011;1320;48.128;11.592;2022-09-09T08:23:45;7.00;;;5.07;;
2620;SDS011;1320;48.128;11.592;2022-09-09T08:26:16;6.43;;;4.30;;
2620;SDS011;1320;48.128;11.592;2022-09-09T08:28:49;6.97;;;4.60;;
2620;SDS011;1320;48.128;11.592;2022-09-09T08:31:20;7.13;;;4.97;;
2620;SDS011;1320;48.128;11.592;2022-09-09T08:33:57;6.33;;;5.27;;
2620;SDS011;1320;48.128;11.592;2022-09-09T08:36:25;6.50;;;4.63;;
2620;SDS011;1320;48.128;11.592;2022-09-09T08:38:53;6.17;;;3.80;;
2620;SDS011;1320;48.128;11.592;2022-09-09T08:41:57;9.23;;;4.20;;
2620;SDS011;1320;48.128;11.592;2022-09-09T08:47:37;7.50;;;5.23;;
2620;SDS011;1320;48.128;11.592;2022-09-09T08:50:07;8.50;;;6.13;;
2620;SDS011;1320;48.128;11.592;2022-09-09T08:52:51;6.97;;;4.57;;
2620;SDS011;1320;48.128;11.592;2022-09-09T08:57:59;6.87;;;4.10;;
2620;SDS011;1320;48.128;11.592;2022-09-09T09:00:41;7.40;;;6.30;;
2620;SDS011;1320;48.128;11.592;2022-09-09T09:11:40;7.87;;;5.70;;
2620;SDS011;1320;48.128;11.592;2022-09-09T09:16:51;6.77;;;4.63;;
2620;SDS011;1320;48.128;11.592;2022-09-09T09:19:32;6.93;;;6.13;;
2620;SDS011;1320;48.128;11.592;2022-09-09T09:24:55;7.20;;;4.37;;
2620;SDS011;1320;48.128;11.592;2022-09-09T09:29:57;8.67;;;6.63;;
2620;SDS011;1320;48.128;11.592;2022-09-09T09:32:25;6.90;;;4.13;;
2620;SDS011;1320;48.128;11.592;2022-09-09T09:34:56;7.10;;;4.57;;
2620;SDS011;1320;48.128;11.592;2022-09-09T09:37:26;6.20;;;5.60;;
2620;SDS011;1320;48.128;11.592;2022-09-09T09:39:55;7.37;;;4.43;;
2620;SDS011;1320;48.128;11.592;2022-09-09T09:42:21;7.17;;;3.87;;
2620;SDS011;1320;48.128;11.592;2022-09-09T09:44:47;6.93;;;5.43;;
2620;SDS011;1320;48.128;11.592;2022-09-09T09:47:18;6.60;;;5.00;;
2620;SDS011;1320;48.128;11.592;2022-09-09T09:52:25;6.90;;;4.73;;
2620;SDS011;1320;48.128;11.592;2022-09-09T09:54:54;6.03;;;4.03;;
2620;SDS011;1320;48.128;11.592;2022-09-09T09:57:26;7.10;;;3.97;;
2620;SDS011;1320;48.128;11.592;2022-09-09T10:00:00;7.00;;;4.73;;
2620;SDS011;1320;48.128;11.592;2022-09-09T10:02:45;7.30;;;4.93;;
2620;SDS011;1320;48.128;11.592;2022-09-09T10:05:14;7.40;;;4.17;;
2620;SDS011;1320;48.128;11.592;2022-09-09T10:07:40;7.00;;;5.27;;
2620;SDS011;1320;48.128;11.592;2022-09-09T10:10:09;6.13;;;4.27;;
2620;SDS011;1320;48.128;11.592;2022-09-09T10:13:00;7.83;;;4.00;;
2620;SDS011;1320;48.128;11.592;2022-09-09T10:15:54;7.53;;;5.30;;
2620;SDS011;1320;48.128;11.592;2022-09-09T10:32:33;6.73;;;3.80;;
2620;SDS011;1320;48.128;11.592;2022-09-09T10:40:37;6.60;;;4.50;;
2620;SDS011;1320;48.128;11.592;2022-09-09T10:45:41;8.80;;;5.10;;
2620;SDS011;1320;48.128;11.592;2022-09-09T10:56:03;6.60;;;4.70;;
2620;SDS011;1320;48.128;11.592;2022-09-09T11:01:18;6.23;;;4.50;;
2620;SDS011;1320;48.128;11.592;2022-09-09T11:03:54;6.23;;;3.60;;
2620;SDS011;1320;48.128;11.592;2022-09-09T11:06:30;6.20;;;4.20;;
2620;SDS011;1320;48.128;11.592;2022-09-09T11:09:02;7.40;;;4.20;;
2620;SDS011;1320;48.128;11.592;2022-09-09T11:11:38;6.70;;;3.90;;
2620;SDS011;1320;48.128;11.592;2022-09-09T11:14:14;7.13;;;3.80;;
2620;SDS011;1320;48.128;11.592;2022-09-09T11:16:57;7.07;;;4.13;;
2620;SDS011;1320;48.128;11.592;2022-09-09T11:19:42;6.20;;;5.10;;
2620;SDS011;1320;48.128;11.592;2022-09-09T11:25:36;5.87;;;3.77;;
2620;SDS011;1320;48.128;11.592;2022-09-09T11:39:24;6.03;;;3.70;;
2620;SDS011;1320;48.128;11.592;2022-09-09T11:44:44;6.27;;;2.50;;
2620;SDS011;1320;48.128;11.592;2022-09-09T11:47:29;5.93;;;3.10;;
2620;SDS011;1320;48.128;11.592;2022-09-09T11:52:41;4.80;;;2.47;;
2620;SDS011;1320;48.128;11.592;2022-09-09T11:55:32;5.30;;;3.30;;
2620;SDS011;1320;48.128;11.592;2022-09-09T11:58:05;5.80;;;3.17;;
2620;SDS011;1320;48.128;11.592;2022-09-09T12:00:42;5.70;;;3.20;;
2620;SDS011;1320;48.128;11.592;2022-09-09T12:06:28;5.10;;;4.20;;
2620;SDS011;1320;48.128;11.592;2022-09-09T12:11:41;4.67;;;2.23;;
2620;SDS011;1320;48.128;11.592;2022-09-09T12:14:18;5.57;;;2.70;;
2620;SDS011;1320;48.128;11.592;2022-09-09T12:16:46;5.40;;;2.20;;
2620;SDS011;1320;48.128;11.592;2022-09-09T12:19:19;5.33;;;3.40;;
2620;SDS011;1320;48.128;11.592;2022-09-09T12:21:53;5.13;;;2.20;;
2620;SDS011;1320;48.128;11.592;2022-09-09T12:24:32;4.70;;;3.60;;
2620;SDS011;1320;48.128;11.592;2022-09-09T12:27:15;6.00;;;2.87;;
2620;SDS011;1320;48.128;11.592;2022-09-09T12:30:14;5.30;;;2.67;;
2620;SDS011;1320;48.128;11.592;2022-09-09T12:32:39;5.17;;;2.63;;
2620;SDS011;1320;48.128;11.592;2022-09-09T12:35:12;5.40;;;2.70;;
2620;SDS011;1320;48.128;11.592;2022-09-09T12:37:50;5.70;;;2.43;;
2620;SDS011;1320;48.128;11.592;2022-09-09T12:40:23;6.13;;;2.17;;
2620;SDS011;1320;48.128;11.592;2022-09-09T12:42:50;4.70;;;2.33;;
2620;SDS011;1320;48.128;11.592;2022-09-09T12:45:20;5.13;;;2.67;;
2620;SDS011;1320;48.128;11.592;2022-09-09T12:50:15;4.90;;;3.43;;
2620;SDS011;1320;48.128;11.592;2022-09-09T12:52:41;5.67;;;2.97;;
2620;SDS011;1320;48.128;11.592;2022-09-09T12:55:14;5.27;;;2.00;;
2620;SDS011;1320;48.128;11.592;2022-09-09T12:57:49;5.27;;;3.00;;
2620;SDS011;1320;48.128;11.592;2022-09-09T13:00:20;4.77;;;2.97;;
2620;SDS011;1320;48.128;11.592;2022-09-09T13:05:19;5.00;;;2.40;;
2620;SDS011;1320;48.128;11.592;2022-09-09T13:08:02;4.80;;;2.40;;
2620;SDS011;1320;48.128;11.592;2022-09-09T13:10:29;5.17;;;2.10;;
2620;SDS011;1320;48.128;11.592;2022-09-09T13:13:00;4.73;;;3.43;;
2620;SDS011;1320;48.128;11.592;2022-09-09T13:15:27;5.27;;;2.50;;
2620;SDS011;1320;48.128;11.592;2022-09-09T13:17:55;4.37;;;2.40;;
2620;SDS011;1320;48.128;11.592;2022-09-09T13:20:26;5.37;;;2.83;;
2620;SDS011;1320;48.128;11.592;2022-09-09T13:22:53;4.50;;;2.30;;
2620;SDS011;1320;48.128;11.592;2022-09-09T13:25:24;5.87;;;2.50;;
2620;SDS011;1320;48.128;11.592;2022-09-09T13:30:29;5.30;;;2.47;;
2620;SDS011;1320;48.128;11.592;2022-09-09T13:35:29;5.23;;;2.77;;
2620;SDS011;1320;48.128;11.592;2022-09-09T13:37:56;4.87;;;2.40;;
2620;SDS011;1320;48.128;11.592;2022-09-09T13:40:22;5.97;;;2.87;;
2620;SDS011;1320;48.128;11.592;2022-09-09T13:42:55;5.27;;;2.70;;
2620;SDS011;1320;48.128;11.592;2022-09-09T13:45:22;5.27;;;2.27;;
2620;SDS011;1320;48.128;11.592;2022-09-09T13:47:51;4.60;;;2.60;;
2620;SDS011;1320;48.128;11.592;2022-09-09T13:52:56;5.50;;;2.63;;
2620;SDS011;1320;48.128;11.592;2022-09-09T13:55:24;5.43;;;3.10;;
2620;SDS011;1320;48.128;11.592;2022-09-09T14:00:26;5.50;;;2.70;;
2620;SDS011;1320;48.128;11.592;2022-09-09T14:02:53;4.63;;;2.40;;
2620;SDS011;1320;48.128;11.592;2022-09-09T14:05:20;6.07;;;3.57;;
2620;SDS011;1320;48.128;11.592;2022-09-09T14:07:47;8.07;;;6.77;;
2620;SDS011;1320;48.128;11.592;2022-09-09T14:10:14;5.70;;;2.63;;
2620;SDS011;1320;48.128;11.592;2022-09-09T14:12:40;5.50;;;3.17;;
2620;SDS011;1320;48.128;11.592;2022-09-09T14:15:06;5.43;;;3.10;;
2620;SDS011;1320;48.128;11.592;2022-09-09T14:17:33;5.07;;;2.63;;
2620;SDS011;1320;48.128;11.592;2022-09-09T14:19:59;5.50;;;2.67;;
2620;SDS011;1320;48.128;11.592;2022-09-09T14:22:25;5.20;;;3.40;;
2620;SDS011;1320;48.128;11.592;2022-09-09T14:24:51;5.10;;;2.70;;
2620;SDS011;1320;48.128;11.592;2022-09-09T14:27:16;6.27;;;4.87;;
2620;SDS011;1320;48.128;11.592;2022-09-09T14:29:44;4.97;;;2.77;;
2620;SDS011;1320;48.128;11.592;2022-09-09T14:32:10;5.90;;;2.67;;
2620;SDS011;1320;48.128;11.592;2022-09-09T14:34:36;5.80;;;3.27;;
2620;SDS011;1320;48.128;11.592;2022-09-09T14:37:02;5.30;;;2.73;;
2620;SDS011;1320;48.128;11.592;2022-09-09T14:39:28;5.53;;;3.03;;
2620;SDS011;1320;48.128;11.592;2022-09-09T14:41:53;6.00;;;2.90;;
2620;SDS011;1320;48.128;11.592;2022-09-09T14:44:19;5.63;;;4.07;;
2620;SDS011;1320;48.128;11.592;2022-09-09T14:46:45;4.67;;;2.70;;
2620;SDS011;1320;48.128;11.592;2022-09-09T14:49:11;5.67;;;2.53;;
2620;SDS011;1320;48.128;11.592;2022-09-09T14:51:37;6.30;;;3.13;;
2620;SDS011;1320;48.128;11.592;2022-09-09T14:54:03;5.80;;;3.00;;
2620;SDS011;1320;48.128;11.592;2022-09-09T14:56:30;5.57;;;2.63;;
2620;SDS011;1320;48.128;11.592;2022-09-09T14:58:59;6.67;;;2.70;;
2620;SDS011;1320;48.128;11.592;2022-09-09T15:01:28;4.90;;;2.80;;
2620;SDS011;1320;48.128;11.592;2022-09-09T15:03:58;5.00;;;2.53;;
2620;SDS011;1320;48.128;11.592;2022-09-09T15:06:26;7.70;;;2.67;;
2620;SDS011;1320;48.128;11.592;2022-09-09T15:08:54;6.17;;;3.10;;
2620;SDS011;1320;48.128;11.592;2022-09-09T15:11:23;4.90;;;2.40;;
2620;SDS011;1320;48.128;11.592;2022-09-09T15:13:50;6.50;;;3.20;;
2620;SDS011;1320;48.128;11.592;2022-09-09T15:16:20;5.37;;;3.17;;
2620;SDS011;1320;48.128;11.592;2022-09-09T15:18:50;4.93;;;3.57;;
2620;SDS011;1320;48.128;11.592;2022-09-09T15:21:19;6.70;;;3.53;;
2620;SDS011;1320;48.128;11.592;2022-09-09T15:23:46;4.93;;;2.30;;
2620;SDS011;1320;48.128;11.592;2022-09-09T15:26:13;5.37;;;2.20;;
2620;SDS011;1320;48.128;11.592;2022-09-09T15:28:42;4.67;;;2.27;;
2620;SDS011;1320;48.128;11.592;2022-09-09T15:36:20;5.87;;;2.77;;
2620;SDS011;1320;48.128;11.592;2022-09-09T15:38:48;4.97;;;2.10;;
2620;SDS011;1320;48.128;11.592;2022-09-09T15:41:14;5.27;;;2.40;;
2620;SDS011;1320;48.128;11.592;2022-09-09T15:43:44;5.70;;;2.30;;
2620;SDS011;1320;48.128;11.592;2022-09-09T15:46:22;4.53;;;2.37;;
2620;SDS011;1320;48.128;11.592;2022-09-09T15:48:58;4.87;;;2.73;;
2620;SDS011;1320;48.128;11.592;2022-09-09T15:51:30;5.40;;;2.37;;
2620;SDS011;1320;48.128;11.592;2022-09-09T15:53:57;5.20;;;3.33;;
2620;SDS011;1320;48.128;11.592;2022-09-09T15:56:24;5.90;;;2.87;;
2620;SDS011;1320;48.128;11.592;2022-09-09T15:58:52;5.17;;;2.73;;
2620;SDS011;1320;48.128;11.592;2022-09-09T16:01:18;4.90;;;2.03;;
2620;SDS011;1320;48.128;11.592;2022-09-09T16:03:44;4.70;;;2.40;;
2620;SDS011;1320;48.128;11.592;2022-09-09T16:06:15;5.50;;;2.20;;
2620;SDS011;1320;48.128;11.592;2022-09-09T16:08:46;4.60;;;2.33;;
2620;SDS011;1320;48.128;11.592;2022-09-09T16:11:18;4.03;;;2.30;;
2620;SDS011;1320;48.128;11.592;2022-09-09T16:13:49;4.70;;;2.10;;
2620;SDS011;1320;48.128;11.592;2022-09-09T16:16:17;5.10;;;2.43;;
2620;SDS011;1320;48.128;11.592;2022-09-09T16:18:45;5.10;;;2.33;;
2620;SDS011;1320;48.128;11.592;2022-09-09T16:21:16;5.50;;;2.70;;
2620;SDS011;1320;48.128;11.592;2022-09-09T16:23:44;6.33;;;1.73;;
2620;SDS011;1320;48.128;11.592;2022-09-09T16:26:10;6.77;;;2.70;;
2620;SDS011;1320;48.128;11.592;2022-09-09T16:28:37;4.40;;;1.60;;
2620;SDS011;1320;48.128;11.592;2022-09-09T16:31:05;4.70;;;1.73;;
2620;SDS011;1320;48.128;11.592;2022-09-09T16:33:49;4.97;;;2.20;;
2620;SDS011;1320;48.128;11.592;2022-09-09T16:36:17;4.13;;;2.17;;
2620;SDS011;1320;48.128;11.592;2022-09-09T16:38:43;4.07;;;1.60;;
2620;SDS011;1320;48.128;11.592;2022-09-09T16:41:10;3.80;;;1.40;;
2620;SDS011;1320;48.128;11.592;2022-09-09T16:43:37;4.47;;;1.63;;
2620;SDS011;1320;48.128;11.592;2022-09-09T16:46:03;4.50;;;1.70;;
2620;SDS011;1320;48.128;11.592;2022-09-09T16:48:38;5.43;;;1.97;;
2620;SDS011;1320;48.128;11.592;2022-09-09T16:51:05;4.70;;;1.27;;
2620;SDS011;1320;48.128;11.592;2022-09-09T16:53:35;4.03;;;1.60;;
2620;SDS011;1320;48.128;11.592;2022-09-09T16:56:07;3.83;;;1.87;;
2620;SDS011;1320;48.128;11.592;2022-09-09T16:58:34;4.70;;;1.60;;
2620;SDS011;1320;48.128;11.592;2022-09-09T17:01:00;4.73;;;1.60;;
2620;SDS011;1320;48.128;11.592;2022-09-09T17:03:27;4.33;;;1.50;;
2620;SDS011;1320;48.128;11.592;2022-09-09T17:05:53;4.80;;;1.50;;
2620;SDS011;1320;48.128;11.592;2022-09-09T17:08:19;4.00;;;1.87;;
2620;SDS011;1320;48.128;11.592;2022-09-09T17:10:44;5.40;;;2.20;;
2620;SDS011;1320;48.128;11.592;2022-09-09T17:13:10;4.37;;;1.70;;
2620;SDS011;1320;48.128;11.592;2022-09-09T17:15:41;4.70;;;2.47;;
2620;SDS011;1320;48.128;11.592;2022-09-09T17:18:09;3.87;;;1.90;;
2620;SDS011;1320;48.128;11.592;2022-09-09T17:20:36;4.00;;;2.33;;
2620;SDS011;1320;48.128;11.592;2022-09-09T17:23:03;5.30;;;2.30;;
2620;SDS011;1320;48.128;11.592;2022-09-09T17:25:28;4.43;;;2.10;;
2620;SDS011;1320;48.128;11.592;2022-09-09T17:27:54;4.80;;;1.90;;
2620;SDS011;1320;48.128;11.592;2022-09-09T17:30:19;4.07;;;2.27;;
2620;SDS011;1320;48.128;11.592;2022-09-09T17:32:45;4.67;;;2.20;;
2620;SDS011;1320;48.128;11.592;2022-09-09T17:35:11;5.00;;;2.10;;
2620;SDS011;1320;48.128;11.592;2022-09-09T17:37:37;4.60;;;2.13;;
2620;SDS011;1320;48.128;11.592;2022-09-09T17:40:03;4.77;;;2.10;;
2620;SDS011;1320;48.128;11.592;2022-09-09T17:42:29;4.80;;;2.40;;
2620;SDS011;1320;48.128;11.592;2022-09-09T17:44:55;5.10;;;2.57;;
2620;SDS011;1320;48.128;11.592;2022-09-09T17:47:20;4.43;;;2.53;;
2620;SDS011;1320;48.128;11.592;2022-09-09T17:49:47;5.80;;;2.87;;
2620;SDS011;1320;48.128;11.592;2022-09-09T17:52:12;6.77;;;2.80;;